Strona główna
METAR-TAF:

METAR-TAF

Lotnisko :

Koniak, Francja

Szerokość geograficzna: 45-40N, Długość geograficzna: 000-19W, wysokość: 30 m

Aktualna obserwacja pogody

Raport powstał 34 minut temu, godzina 04:00 UTC
Cisza
Temperatura 18°C
Wilgotność 83%
Ciśnienie 1018 hPa
Widzialność 10 km lub więcej
Brak chmur poniżej 1500 m i brak chmur cumulonimbus

METAR: LFBG 150400Z AUTO 00000KT CAVOK 18/15 Q1018

czas: 06:34 (04:34 UTC)

Prognoza

Raport powstał 14 godziny i 34 minut temu, godzina 14:00 UTC
Prognoza ważna od 14 godzina 15 UTC do 15 godzina 15 UTC
Wiatr 6 kt od północny zachód
Widzialność 10 km lub więcej
Brak chmur poniżej 1500 m i brak chmur cumulonimbus

TAF: LFBG 141400Z 1415/1515 32006KT CAVOK

Obserwacja i prognoza pogody dla ponad 4000 lotnisk (raport METAR i TAF).

Dostępne stacje oznaczono żółtymi i czerwonymi punktami na mapie.

Najedź kursorem aby zobaczyć nazwę stacji.

Kliknij aby zobaczyć obserwacje i prognozy pogody.

Aby zmienić mapę: kliknij na zielony przycisk z czarnym krzyżykiem, aby powiększyć; na zielony przycisk z myślnikiem, aby pomniejszyć; na zielone strzałki, aby przejść do map sąsiednich.


METAR-TAF: